Terminal Aerodrome Forecast
Issued by NWS

Home | Current Version | Previous Version | Text Only | Print | Product List | Glossary On
Versions: 1 2 3 4 5 6 7 8 9 10 11 12 13 14 15 16 17 18 19 20 21 22 23 24 25 26 27
000
FTUS41 KPBZ 250257 AAB
TAFAGC
TAF AMD
KAGC 250257Z 2503/2524 18004KT 1SM BR BKN200
      TEMPO 2503/2507 1/4SM FG VV001
     FM251400 24008KT P6SM VCTS BKN250CB
     FM251900 25008KT P6SM SHRA VCTS BKN090CB
     FM252200 26007KT P6SM VCTS BKN250CB=

USA.gov is the U.S. government's official web portal to all federal, state and local government web resources and services.